createdAt,value
2018-02-12T00:00:06.752Z,80.1
2018-02-12T00:01:16.869Z,80
2018-02-12T00:02:27.032Z,79.82
2018-02-12T00:03:37.159Z,80
2018-02-12T00:04:47.026Z,80
2018-02-12T00:05:57.145Z,79.91
2018-02-12T00:07:07.272Z,80.19
2018-02-12T00:08:17.442Z,80
2018-02-12T00:09:27.565Z,80.19
2018-02-12T00:10:37.708Z,79.91
2018-02-12T00:11:47.835Z,80.19
2018-02-12T00:12:57.956Z,80
2018-02-12T00:14:08.062Z,80.1
2018-02-12T00:15:18.222Z,80
2018-02-12T00:16:28.093Z,79.91
2018-02-12T00:17:38.233Z,80
2018-02-12T00:18:48.102Z,79.68
2018-02-12T00:19:58.372Z,80
2018-02-12T00:21:08.481Z,79.87
2018-02-12T00:22:18.659Z,80.06
2018-02-12T00:23:28.914Z,79.77
2018-02-12T00:24:39.043Z,79.87
2018-02-12T00:25:49.310Z,79.96
2018-02-12T00:26:59.181Z,80.06
2018-02-12T00:28:10.280Z,79.87
2018-02-12T00:29:20.413Z,79.91
2018-02-12T00:30:30.569Z,79.58
2018-02-12T00:31:40.693Z,79.91
2018-02-12T00:32:50.806Z,79.87
2018-02-12T00:34:00.917Z,79.87
2018-02-12T00:35:11.121Z,79.49
2018-02-12T00:36:21.325Z,79.49
2018-02-12T00:37:31.514Z,79.68
2018-02-12T00:38:41.715Z,79.68
2018-02-12T00:39:51.880Z,79.3
2018-02-12T00:41:02.059Z,79.68
2018-02-12T00:42:12.196Z,79.58
2018-02-12T00:43:22.067Z,79.3
2018-02-12T00:44:32.288Z,79.49
2018-02-12T00:45:42.498Z,79.39
2018-02-12T00:46:52.619Z,79.68
2018-02-12T00:48:02.742Z,79.96
2018-02-12T00:49:12.843Z,80.15
2018-02-12T00:50:23.004Z,79.96
2018-02-12T00:51:33.153Z,79.96
2018-02-12T00:52:43.363Z,80.06
2018-02-12T00:53:53.482Z,79.87
2018-02-12T00:55:03.721Z,80.06
2018-02-12T00:56:14.835Z,79.68
2018-02-12T00:57:24.725Z,80.06
2018-02-12T00:58:34.854Z,79.96
2018-02-12T00:59:44.944Z,79.87
2018-02-12T01:00:54.868Z,80.34
2018-02-12T01:02:04.998Z,80.63
2018-02-12T01:03:15.102Z,80.34
2018-02-12T01:04:24.955Z,79.77
2018-02-12T01:05:35.068Z,79.68
2018-02-12T01:06:45.036Z,79.77
2018-02-12T01:07:55.358Z,79.77
2018-02-12T01:09:05.536Z,80.15
2018-02-12T01:10:15.689Z,80.63
2018-02-12T01:11:25.867Z,80.25
2018-02-12T01:12:36.140Z,80.25
2018-02-12T01:13:45.985Z,80.25
2018-02-12T01:14:56.118Z,80.34
2018-02-12T01:16:06.299Z,80.25
2018-02-12T01:17:16.540Z,80.44
2018-02-12T01:18:26.718Z,79.87
2018-02-12T01:19:36.910Z,79.87
2018-02-12T01:20:47.011Z,79.87
2018-02-12T01:21:57.110Z,80.44
2018-02-12T01:23:08.194Z,80.34
2018-02-12T01:24:18.384Z,80.53
2018-02-12T01:25:28.252Z,80.57
2018-02-12T01:26:38.377Z,80.34
2018-02-12T01:27:48.254Z,80.15
2018-02-12T01:28:58.386Z,79.82
2018-02-12T01:30:08.519Z,79.96
2018-02-12T01:31:18.644Z,79.96
2018-02-12T01:32:28.757Z,79.68
2018-02-12T01:33:38.899Z,80.15
2018-02-12T01:34:49.011Z,79.39
2018-02-12T01:35:59.179Z,79.39
2018-02-12T01:37:09.281Z,79.49
2018-02-12T01:38:19.210Z,79.96
2018-02-12T01:39:29.407Z,80.15
2018-02-12T01:40:39.616Z,80.44
2018-02-12T01:41:49.768Z,80.44
2018-02-12T01:42:59.899Z,80.15
2018-02-12T01:44:10.067Z,80.34
2018-02-12T01:45:20.192Z,80.77
2018-02-12T01:46:30.230Z,80.82
2018-02-12T01:47:40.386Z,80.68
2018-02-12T01:48:50.241Z,80.87
2018-02-12T01:50:00.343Z,80.96
2018-02-12T01:51:10.487Z,81.06
2018-02-12T01:52:20.598Z,81.01
2018-02-12T01:53:31.682Z,81.06
2018-02-12T01:54:41.790Z,80.91
2018-02-12T01:55:51.949Z,81.29
2018-02-12T01:57:01.809Z,81.25
2018-02-12T01:58:11.547Z,80.77
2018-02-12T01:59:21.772Z,80.72
2018-02-12T02:00:31.665Z,80.91
2018-02-12T02:01:41.812Z,80.91
2018-02-12T02:02:52.041Z,80.82
2018-02-12T02:04:01.903Z,81.01
2018-02-12T02:05:12.025Z,81.1
2018-02-12T02:06:22.134Z,80.91
2018-02-12T02:07:32.255Z,81.2
2018-02-12T02:08:42.115Z,81.01
2018-02-12T02:09:52.095Z,81.01
2018-02-12T02:11:02.225Z,80.82
2018-02-12T02:12:12.397Z,81.2
2018-02-12T02:13:22.272Z,81.2
2018-02-12T02:14:33.481Z,80.91
2018-02-12T02:15:44.518Z,80.82
2018-02-12T02:16:55.596Z,81.01
2018-02-12T02:18:05.776Z,81.29
2018-02-12T02:19:15.924Z,81.1
2018-02-12T02:20:26.085Z,81.01
2018-02-12T02:21:36.295Z,81.01
2018-02-12T02:22:46.482Z,80.77
2018-02-12T02:23:56.621Z,80.77
2018-02-12T02:25:06.778Z,81.1
2018-02-12T02:26:16.962Z,80.91
2018-02-12T02:27:26.833Z,80.82
2018-02-12T02:28:36.950Z,81.1
2018-02-12T02:29:47.086Z,80.82
2018-02-12T02:30:57.238Z,81.01
2018-02-12T02:32:07.077Z,80.91
2018-02-12T02:33:17.187Z,81.1
2018-02-12T02:34:27.300Z,80.82
2018-02-12T02:35:37.422Z,81.1
2018-02-12T02:36:47.531Z,80.91
2018-02-12T02:37:57.670Z,80.82
2018-02-12T02:39:07.535Z,81.2
2018-02-12T02:40:17.391Z,81.01
2018-02-12T02:41:27.606Z,80.91
2018-02-12T02:42:37.734Z,80.82
2018-02-12T02:43:47.840Z,81.01
2018-02-12T02:44:57.978Z,81.01
2018-02-12T02:46:08.103Z,80.91
2018-02-12T02:47:18.254Z,80.91
2018-02-12T02:48:28.381Z,80.91
2018-02-12T02:49:38.494Z,80.91
2018-02-12T02:50:48.614Z,80.91
2018-02-12T02:51:58.716Z,81.01
2018-02-12T02:53:08.908Z,81.01
2018-02-12T02:54:19.024Z,80.91
2018-02-12T02:55:29.182Z,80.72
2018-02-12T02:56:39.282Z,81.48
2018-02-12T02:57:49.499Z,81.38
2018-02-12T02:58:59.710Z,81.38
2018-02-12T03:00:10.081Z,81.48
2018-02-12T03:01:20.183Z,81.29
2018-02-12T03:02:30.358Z,81.2
2018-02-12T03:03:40.459Z,81.38
2018-02-12T03:04:50.588Z,81.38
2018-02-12T03:06:00.719Z,81.38
2018-02-12T03:07:10.832Z,81.48
2018-02-12T03:08:20.989Z,81.48
2018-02-12T03:09:31.094Z,81.29
2018-02-12T03:10:41.229Z,81.38
2018-02-12T03:11:51.114Z,81.29
2018-02-12T03:13:00.973Z,81.57
2018-02-12T03:14:11.097Z,81.29
2018-02-12T03:15:21.213Z,81.29
2018-02-12T03:16:31.324Z,81.2
2018-02-12T03:17:41.280Z,81.2
2018-02-12T03:18:51.127Z,81.2
2018-02-12T03:20:01.261Z,81.2
2018-02-12T03:21:11.365Z,81.76
2018-02-12T03:22:21.487Z,81.29
2018-02-12T03:23:31.705Z,81.2
2018-02-12T03:24:41.563Z,81.38
2018-02-12T03:25:51.425Z,81.2
2018-02-12T03:27:02.338Z,81.29
2018-02-12T03:28:12.820Z,81.29
2018-02-12T03:29:22.965Z,81.48
2018-02-12T03:30:33.134Z,81.38
2018-02-12T03:31:43.264Z,81.48
2018-02-12T03:32:53.373Z,81.48
2018-02-12T03:34:03.501Z,81.29
2018-02-12T03:35:13.615Z,81.01
2018-02-12T03:36:23.468Z,80.91
2018-02-12T03:37:33.601Z,81.01
2018-02-12T03:38:43.713Z,81.01
2018-02-12T03:39:53.975Z,80.72
2018-02-12T03:41:04.120Z,81.48
2018-02-12T03:42:14.264Z,81.29
2018-02-12T03:43:24.375Z,81.01
2018-02-12T03:44:34.485Z,81.01
2018-02-12T03:45:44.368Z,81.01
2018-02-12T03:46:54.471Z,80.91
2018-02-12T03:48:04.072Z,81.01
2018-02-12T03:49:13.670Z,80.91
2018-02-12T03:50:23.828Z,81.01
2018-02-12T03:51:33.941Z,81.2
2018-02-12T03:52:43.803Z,81.48
2018-02-12T03:53:54.136Z,80.91
2018-02-12T03:55:04.307Z,81.01
2018-02-12T03:56:14.462Z,80.82
2018-02-12T03:57:24.628Z,81.01
2018-02-12T03:58:34.482Z,80.82
2018-02-12T03:59:44.648Z,80.91
2018-02-12T04:00:54.516Z,81.1
2018-02-12T04:02:04.618Z,81.1
2018-02-12T04:03:14.990Z,80.91
2018-02-12T04:04:26.195Z,81.01
2018-02-12T04:05:36.311Z,80.91
2018-02-12T04:06:46.500Z,80.91
2018-02-12T04:07:56.616Z,80.91
2018-02-12T04:09:06.738Z,81.01
2018-02-12T04:10:16.856Z,80.82
2018-02-12T04:11:26.995Z,80.91
2018-02-12T04:12:37.119Z,80.82
2018-02-12T04:13:47.272Z,80.63
2018-02-12T04:14:57.388Z,80.44
2018-02-12T04:16:07.262Z,80.63
2018-02-12T04:17:17.375Z,80.63
2018-02-12T04:18:27.296Z,80.63
2018-02-12T04:19:37.280Z,81.01
2018-02-12T04:20:47.402Z,80.91
2018-02-12T04:21:57.716Z,80.82
2018-02-12T04:23:07.813Z,80.72
2018-02-12T04:24:18.002Z,80.82
2018-02-12T04:25:27.920Z,80.63
2018-02-12T04:26:38.065Z,80.63
2018-02-12T04:27:48.220Z,80.63
2018-02-12T04:28:58.325Z,80.72
2018-02-12T04:30:08.469Z,80.44
2018-02-12T04:31:18.720Z,80.72
2018-02-12T04:32:28.947Z,80.63
2018-02-12T04:33:39.206Z,80.91
2018-02-12T04:34:49.311Z,80.91
2018-02-12T04:35:59.446Z,81.01
2018-02-12T04:37:09.557Z,81.01
2018-02-12T04:38:19.772Z,80.91
2018-02-12T04:39:29.914Z,80.91
2018-02-12T04:40:40.039Z,81.2
2018-02-12T04:41:50.219Z,81.01
2018-02-12T04:43:00.576Z,80.91
2018-02-12T04:44:10.740Z,81.01
2018-02-12T04:45:20.864Z,81.29
2018-02-12T04:46:30.975Z,81.48
2018-02-12T04:47:41.115Z,81.29
2018-02-12T04:48:51.225Z,81.29
2018-02-12T04:50:00.967Z,81.48
2018-02-12T04:51:11.187Z,81.48
2018-02-12T04:52:21.413Z,81.48
2018-02-12T04:53:31.708Z,81.29
2018-02-12T04:54:41.848Z,81.48
2018-02-12T04:55:51.694Z,81.48
2018-02-12T04:57:01.585Z,81.29
2018-02-12T04:58:11.324Z,81.38
2018-02-12T04:59:21.462Z,81.29
2018-02-12T05:00:31.571Z,81.48
2018-02-12T05:01:41.683Z,81.48
2018-02-12T05:02:51.560Z,81.29
2018-02-12T05:04:01.172Z,81.38
2018-02-12T05:05:11.034Z,81.38
2018-02-12T05:06:21.137Z,81.48
2018-02-12T05:07:31.371Z,82.24
2018-02-12T05:08:41.215Z,82.05
2018-02-12T05:09:51.322Z,81.95
2018-02-12T05:11:01.432Z,82.05
2018-02-12T05:12:11.318Z,82.05
2018-02-12T05:13:21.545Z,82.28
2018-02-12T05:14:31.427Z,82.09
2018-02-12T05:15:41.532Z,81.99
2018-02-12T05:16:51.647Z,82.18
2018-02-12T05:18:01.781Z,82.09
2018-02-12T05:19:12.019Z,81.99
2018-02-12T05:20:21.908Z,82.09
2018-02-12T05:21:32.289Z,81.9
2018-02-12T05:22:42.432Z,81.9
2018-02-12T05:23:52.556Z,81.81
2018-02-12T05:25:02.742Z,81.9
2018-02-12T05:26:12.869Z,81.99
2018-02-12T05:27:23.018Z,81.9
2018-02-12T05:28:32.904Z,82.09
2018-02-12T05:29:43.028Z,82.09
2018-02-12T05:30:53.125Z,81.99
2018-02-12T05:32:03.065Z,81.99
2018-02-12T05:33:13.312Z,82.28
2018-02-12T05:34:23.482Z,82.18
2018-02-12T05:35:33.752Z,81.81
2018-02-12T05:36:43.614Z,82.09
2018-02-12T05:37:53.725Z,81.99
2018-02-12T05:39:03.578Z,81.9
2018-02-12T05:40:13.738Z,82.28
2018-02-12T05:41:23.851Z,81.52
2018-02-12T05:42:34.106Z,81.33
2018-02-12T05:43:44.234Z,81.33
2018-02-12T05:44:54.413Z,81.33
2018-02-12T05:46:04.673Z,81.33
2018-02-12T05:47:14.550Z,81.43
2018-02-12T05:48:24.666Z,81.52
2018-02-12T05:49:35.740Z,81.43
2018-02-12T05:50:45.842Z,81.33
2018-02-12T05:51:55.959Z,81.24
2018-02-12T05:53:06.070Z,81.33
2018-02-12T05:54:16.280Z,81.52
2018-02-12T05:55:26.168Z,81.33
2018-02-12T05:56:36.277Z,81.33
2018-02-12T05:57:46.490Z,81.33
2018-02-12T05:58:56.742Z,81.24
2018-02-12T06:00:06.884Z,81.24
2018-02-12T06:01:17.001Z,81.33
2018-02-12T06:02:27.243Z,81.43
2018-02-12T06:03:37.382Z,81.52
2018-02-12T06:04:47.526Z,81.24
2018-02-12T06:05:57.648Z,80.86
2018-02-12T06:07:07.898Z,81.14
2018-02-12T06:08:18.070Z,81.24
2018-02-12T06:09:28.270Z,80.86
2018-02-12T06:10:38.398Z,81.14
2018-02-12T06:11:48.596Z,81.14
2018-02-12T06:12:58.790Z,80.95
2018-02-12T06:14:09.068Z,81.14
2018-02-12T06:15:19.209Z,81.14
2018-02-12T06:16:29.323Z,80.95
2018-02-12T06:17:40.394Z,81.05
2018-02-12T06:18:50.502Z,80.95
2018-02-12T06:20:00.629Z,81.05
2018-02-12T06:21:11.728Z,81.05
2018-02-12T06:22:21.863Z,81.05
2018-02-12T06:23:31.973Z,81.24
2018-02-12T06:24:42.135Z,81.52
2018-02-12T06:25:52.409Z,81.33
2018-02-12T06:27:02.549Z,80.76
2018-02-12T06:28:13.753Z,80.86
2018-02-12T06:29:23.954Z,80.76
2018-02-12T06:30:33.841Z,80.95
2018-02-12T06:31:43.950Z,80.86
2018-02-12T06:32:54.111Z,80.95
2018-02-12T06:34:04.341Z,80.95
2018-02-12T06:35:14.536Z,81.05
2018-02-12T06:36:24.403Z,80.86
2018-02-12T06:37:34.533Z,80.95
2018-02-12T06:38:44.651Z,81.05
2018-02-12T06:39:54.924Z,81.05
2018-02-12T06:41:05.130Z,80.86
2018-02-12T06:42:15.240Z,80.95
2018-02-12T06:43:25.374Z,81.05
2018-02-12T06:44:35.490Z,81.33
2018-02-12T06:45:45.592Z,81.05
2018-02-12T06:46:55.697Z,81.05
2018-02-12T06:48:06.017Z,80.95
2018-02-12T06:49:16.225Z,81.05
2018-02-12T06:50:26.380Z,80.95
2018-02-12T06:51:36.231Z,81.05
2018-02-12T06:52:47.340Z,81.52
2018-02-12T06:53:57.486Z,81.43
2018-02-12T06:55:07.580Z,81.43
2018-02-12T06:56:17.706Z,81.33
2018-02-12T06:57:27.825Z,81.33
2018-02-12T06:58:37.688Z,80.95
2018-02-12T06:59:47.872Z,80.86
2018-02-12T07:00:58.055Z,80.95
2018-02-12T07:02:08.223Z,80.86
2018-02-12T07:03:18.363Z,80.95
2018-02-12T07:04:28.294Z,80.76
2018-02-12T07:05:38.221Z,80.86
2018-02-12T07:06:48.335Z,80.76
2018-02-12T07:07:58.498Z,80.76
2018-02-12T07:09:08.633Z,80.48
2018-02-12T07:10:18.747Z,80.95
2018-02-12T07:11:28.879Z,81.05
2018-02-12T07:12:39.010Z,80.95
2018-02-12T07:13:48.958Z,81.05
2018-02-12T07:14:59.117Z,81.05
2018-02-12T07:16:09.280Z,80.95
2018-02-12T07:17:19.429Z,80.95
2018-02-12T07:18:29.533Z,80.95
2018-02-12T07:19:39.288Z,80.95
2018-02-12T07:20:49.401Z,80.86
2018-02-12T07:21:59.526Z,80.95
2018-02-12T07:23:09.650Z,81.05
2018-02-12T07:24:19.776Z,81.05
2018-02-12T07:25:29.898Z,81.24
2018-02-12T07:26:39.708Z,80.86
2018-02-12T07:27:49.882Z,81.05
2018-02-12T07:29:00.006Z,81.05
2018-02-12T07:30:10.125Z,81.14
2018-02-12T07:31:20.328Z,80.95
2018-02-12T07:32:30.281Z,81.05
2018-02-12T07:33:40.379Z,81.05
2018-02-12T07:34:50.543Z,80.86
2018-02-12T07:36:00.703Z,81.05
2018-02-12T07:37:10.905Z,81.52
2018-02-12T07:38:21.125Z,81.24
2018-02-12T07:39:31.033Z,81.33
2018-02-12T07:40:40.875Z,81.52
2018-02-12T07:41:51.026Z,81.52
2018-02-12T07:43:01.137Z,81.99
2018-02-12T07:44:11.268Z,81.71
2018-02-12T07:45:21.378Z,81.81
2018-02-12T07:46:31.486Z,81.99
2018-02-12T07:47:41.625Z,81.9
2018-02-12T07:48:51.510Z,81.9
2018-02-12T07:50:01.624Z,82.09
2018-02-12T07:51:11.480Z,81.81
2018-02-12T07:52:21.625Z,81.99
2018-02-12T07:53:31.732Z,81.99
2018-02-12T07:54:41.484Z,81.99
2018-02-12T07:55:51.369Z,82.47
2018-02-12T07:57:01.480Z,81.99
2018-02-12T07:58:11.612Z,81.99
2018-02-12T07:59:21.159Z,81.9
2018-02-12T08:00:31.272Z,82.18
2018-02-12T08:01:41.248Z,82.09
2018-02-12T08:02:51.525Z,81.81
2018-02-12T08:04:01.638Z,82.18
2018-02-12T08:05:11.517Z,81.9
2018-02-12T08:06:21.658Z,82.28
2018-02-12T08:07:31.579Z,81.81
2018-02-12T08:08:41.702Z,82.09
2018-02-12T08:09:51.807Z,81.81
2018-02-12T08:11:01.660Z,81.99
2018-02-12T08:12:11.586Z,81.9
2018-02-12T08:13:21.751Z,82.09
2018-02-12T08:14:31.638Z,81.81
2018-02-12T08:15:41.779Z,81.81
2018-02-12T08:16:51.926Z,82.09
2018-02-12T08:18:02.049Z,81.75
2018-02-12T08:19:12.213Z,81.47
2018-02-12T08:20:22.345Z,81.56
2018-02-12T08:21:32.573Z,81.27
2018-02-12T08:22:42.842Z,81.27
2018-02-12T08:23:52.987Z,80.9
2018-02-12T08:25:03.162Z,80.71
2018-02-12T08:26:13.473Z,80.08
2018-02-12T08:27:23.678Z,80.46
2018-02-12T08:28:33.871Z,80.08
2018-02-12T08:29:44.140Z,79.84
2018-02-12T08:30:54.330Z,79.27
2018-02-12T08:32:04.492Z,78.8
2018-02-12T08:33:14.653Z,78.99
2018-02-12T08:34:24.773Z,79.27
2018-02-12T08:35:34.886Z,78.7
2018-02-12T08:36:44.780Z,78.61
2018-02-12T08:37:54.919Z,78.89
2018-02-12T08:39:05.038Z,78.13
2018-02-12T08:40:15.159Z,78.23
2018-02-12T08:41:25.315Z,78.42
2018-02-12T08:42:35.613Z,77.66
2018-02-12T08:43:45.790Z,77.75
2018-02-12T08:44:55.785Z,77.47
2018-02-12T08:46:05.674Z,77.37
2018-02-12T08:47:15.792Z,76.71
2018-02-12T08:48:25.962Z,75.74
2018-02-12T08:49:36.071Z,74.26
2018-02-12T08:50:45.957Z,73.78
2018-02-12T08:51:56.068Z,72.96
2018-02-12T08:53:05.920Z,71.82
2018-02-12T08:54:16.040Z,70.81
2018-02-12T08:55:26.176Z,70.84
2018-02-12T08:56:36.347Z,70.18
2018-02-12T08:57:46.587Z,69.26
2018-02-12T08:58:56.740Z,67.45
2018-02-12T09:00:06.901Z,66.97
2018-02-12T09:01:17.329Z,66.5
2018-02-12T09:02:27.445Z,65.48
2018-02-12T09:03:37.659Z,64.43
2018-02-12T09:04:47.901Z,63.51
2018-02-12T09:05:58.167Z,63.64
2018-02-12T09:07:08.313Z,63.54
2018-02-12T09:08:18.513Z,61.63
2018-02-12T09:09:28.423Z,61.19
2018-02-12T09:10:38.554Z,61.32
2018-02-12T09:11:48.676Z,60.46
2018-02-12T09:12:58.974Z,58.54
2018-02-12T09:14:08.901Z,58.99
2018-02-12T09:15:19.023Z,59.56
2018-02-12T09:16:29.043Z,59.92
2018-02-12T09:17:38.895Z,59.03
2018-02-12T09:18:50.047Z,59.76
2018-02-12T09:20:00.170Z,59.64
2018-02-12T09:21:10.519Z,59.7
2018-02-12T09:22:20.720Z,59.99
2018-02-12T09:23:30.688Z,59.54
2018-02-12T09:24:40.813Z,59
2018-02-12T09:25:50.670Z,57.79
2018-02-12T09:27:00.798Z,55.82
2018-02-12T09:28:11.888Z,54.41
2018-02-12T09:29:22.089Z,55.75
2018-02-12T09:30:32.242Z,56.04
2018-02-12T09:31:42.400Z,56.23
2018-02-12T09:32:52.669Z,54.34
2018-02-12T09:34:02.944Z,51.67
2018-02-12T09:35:13.112Z,50.07
2018-02-12T09:36:23.429Z,49.3
2018-02-12T09:37:33.610Z,49.21
2018-02-12T09:38:43.836Z,50.76
2018-02-12T09:39:53.978Z,48.66
2018-02-12T09:41:04.096Z,48.78
2018-02-12T09:42:14.225Z,49.04
2018-02-12T09:43:25.355Z,51.03
2018-02-12T09:44:35.541Z,51.19
2018-02-12T09:45:45.663Z,52.15
2018-02-12T09:46:55.803Z,52.4
2018-02-12T09:48:06.067Z,52.24
2018-02-12T09:49:16.356Z,51.09
2018-02-12T09:50:26.527Z,49.76
2018-02-12T09:51:36.719Z,49.4
2018-02-12T09:52:46.934Z,50.26
2018-02-12T09:53:57.209Z,49.3
2018-02-12T09:55:08.295Z,49.33
2018-02-12T09:56:18.421Z,48.66
2018-02-12T09:57:28.295Z,48.57
2018-02-12T09:58:38.479Z,48.28
2018-02-12T09:59:48.693Z,49.04
2018-02-12T10:00:58.604Z,48.95
2018-02-12T10:02:08.778Z,48.66
2018-02-12T10:03:18.969Z,47.61
2018-02-12T10:04:29.151Z,47.23
2018-02-12T10:05:39.092Z,48.38
2018-02-12T10:06:49.217Z,48.66
2018-02-12T10:07:59.349Z,48.73
2018-02-12T10:09:09.627Z,49.09
2018-02-12T10:10:19.503Z,49.66
2018-02-12T10:11:29.627Z,49.28
2018-02-12T10:12:39.828Z,49.85
2018-02-12T10:13:49.722Z,50.81
2018-02-12T10:14:59.871Z,50.24
2018-02-12T10:16:09.756Z,50.14
2018-02-12T10:17:19.887Z,50.71
2018-02-12T10:18:30.060Z,49.98
2018-02-12T10:19:40.228Z,48.16
2018-02-12T10:20:50.425Z,48.44
2018-02-12T10:22:00.677Z,48.57
2018-02-12T10:23:10.804Z,48.18
2018-02-12T10:24:20.973Z,47.23
2018-02-12T10:25:31.237Z,47.52
2018-02-12T10:26:41.428Z,47.61
2018-02-12T10:27:51.650Z,47.63
2018-02-12T10:29:01.948Z,46.01
2018-02-12T10:30:12.123Z,45.34
2018-02-12T10:31:22.428Z,45.91
2018-02-12T10:32:32.606Z,45.34
2018-02-12T10:33:42.852Z,46.01
2018-02-12T10:34:53.000Z,45.91
2018-02-12T10:36:03.201Z,46.01
2018-02-12T10:37:13.453Z,46.67
2018-02-12T10:38:23.641Z,46.46
2018-02-12T10:39:33.954Z,46.1
2018-02-12T10:40:44.198Z,45.17
2018-02-12T10:41:54.090Z,43.54
2018-02-12T10:43:04.243Z,43.44
2018-02-12T10:44:14.429Z,44.02
2018-02-12T10:45:24.600Z,44.12
2018-02-12T10:46:34.755Z,42.77
2018-02-12T10:47:45.011Z,43.54
2018-02-12T10:48:55.200Z,44.21
2018-02-12T10:50:05.392Z,45.05
2018-02-12T10:51:15.327Z,44.93
2018-02-12T10:52:25.548Z,45.31
2018-02-12T10:53:35.427Z,46.34
2018-02-12T10:54:45.527Z,46.7
2018-02-12T10:55:55.721Z,47.25
2018-02-12T10:57:05.865Z,48.28
2018-02-12T10:58:16.050Z,48.66
2018-02-12T10:59:26.178Z,49.59
2018-02-12T11:00:36.323Z,50.26
2018-02-12T11:01:46.459Z,51.28
2018-02-12T11:02:56.619Z,51.85
2018-02-12T11:04:06.777Z,52.49
2018-02-12T11:05:16.916Z,52.78
2018-02-12T11:06:27.073Z,53.42
2018-02-12T11:07:36.982Z,53.99
2018-02-12T11:08:47.148Z,54.75
2018-02-12T11:09:57.295Z,55.22
2018-02-12T11:11:07.490Z,55.58
2018-02-12T11:12:18.595Z,55.58
2018-02-12T11:13:28.536Z,56.24
2018-02-12T11:14:38.696Z,56.44
2018-02-12T11:15:48.942Z,56.7
2018-02-12T11:16:59.092Z,57.65
2018-02-12T11:18:09.226Z,57.65
2018-02-12T11:19:19.361Z,58.5
2018-02-12T11:20:29.278Z,58.79
2018-02-12T11:21:39.425Z,58.85
2018-02-12T11:22:49.705Z,58.76
2018-02-12T11:23:59.471Z,59.61
2018-02-12T11:25:09.627Z,59.9
2018-02-12T11:26:19.792Z,59.99
2018-02-12T11:27:29.950Z,59.71
2018-02-12T11:28:40.063Z,59.96
2018-02-12T11:29:50.182Z,60.06
2018-02-12T11:31:00.312Z,60.91
2018-02-12T11:32:10.442Z,61.29
2018-02-12T11:33:20.208Z,61.01
2018-02-12T11:34:30.082Z,61.39
2018-02-12T11:35:40.270Z,61.68
2018-02-12T11:36:50.135Z,61.96
2018-02-12T11:38:00.012Z,61.68
2018-02-12T11:39:10.136Z,61.68
2018-02-12T11:40:20.066Z,61.77
2018-02-12T11:41:30.224Z,62.24
2018-02-12T11:42:40.364Z,62.43
2018-02-12T11:43:50.513Z,62.91
2018-02-12T11:45:00.518Z,62.5
2018-02-12T11:46:10.867Z,62.62
2018-02-12T11:47:20.647Z,62.81
2018-02-12T11:48:30.790Z,63.39
2018-02-12T11:49:40.892Z,62.53
2018-02-12T11:50:50.855Z,62.81
2018-02-12T11:52:01.001Z,62.62
2018-02-12T11:53:11.134Z,62.81
2018-02-12T11:54:21.345Z,62.72
2018-02-12T11:55:31.471Z,62.72
2018-02-12T11:56:41.677Z,62.72
2018-02-12T11:57:51.881Z,62.43
2018-02-12T11:59:01.927Z,62.53
2018-02-12T12:00:12.079Z,62.53
2018-02-12T12:01:22.434Z,62.62
2018-02-12T12:02:32.565Z,62.91
2018-02-12T12:03:42.688Z,61.77
2018-02-12T12:04:52.999Z,61.96
2018-02-12T12:06:03.156Z,61.96
2018-02-12T12:07:12.929Z,62.72
2018-02-12T12:08:23.286Z,62.24
2018-02-12T12:09:33.438Z,62.43
2018-02-12T12:10:43.873Z,62.91
2018-02-12T12:11:54.146Z,62.91
2018-02-12T12:13:04.357Z,63.57
2018-02-12T12:14:14.505Z,63.17
2018-02-12T12:15:24.645Z,63.64
2018-02-12T12:16:34.792Z,63.54
2018-02-12T12:17:45.141Z,63.35
2018-02-12T12:18:55.256Z,63.45
2018-02-12T12:20:05.396Z,63.35
2018-02-12T12:21:15.551Z,64.02
2018-02-12T12:22:25.627Z,63.83
2018-02-12T12:23:35.811Z,63.92
2018-02-12T12:24:46.018Z,64.49
2018-02-12T12:25:56.186Z,64.11
2018-02-12T12:27:06.080Z,64.87
2018-02-12T12:28:16.239Z,64.59
2018-02-12T12:29:26.370Z,64.69
2018-02-12T12:30:36.483Z,64.78
2018-02-12T12:31:46.624Z,64.59
2018-02-12T12:32:56.512Z,64.59
2018-02-12T12:34:07.608Z,64.78
2018-02-12T12:35:17.724Z,64.87
2018-02-12T12:36:27.983Z,64.21
2018-02-12T12:37:37.830Z,64.21
2018-02-12T12:38:48.287Z,64.4
2018-02-12T12:39:58.162Z,64.62
2018-02-12T12:41:08.321Z,64.24
2018-02-12T12:42:18.568Z,63.95
2018-02-12T12:43:28.805Z,64.14
2018-02-12T12:44:38.950Z,63.48
2018-02-12T12:45:49.171Z,63.76
2018-02-12T12:46:59.324Z,63.67
2018-02-12T12:48:09.473Z,63.48
2018-02-12T12:49:19.703Z,63.29
2018-02-12T12:50:29.964Z,63.29
2018-02-12T12:51:41.138Z,63.67
2018-02-12T12:52:51.383Z,62.62
2018-02-12T12:54:01.662Z,62.72
2018-02-12T12:55:11.859Z,62.85
2018-02-12T12:56:22.104Z,62.18
2018-02-12T12:57:32.288Z,61.9
2018-02-12T12:58:42.427Z,61.04
2018-02-12T12:59:52.573Z,60.66
2018-02-12T13:01:02.482Z,60.31
2018-02-12T13:02:12.670Z,59.93
2018-02-12T13:03:22.439Z,60.31
2018-02-12T13:04:32.358Z,60.21
2018-02-12T13:05:42.492Z,60.12
2018-02-12T13:06:52.366Z,60.31
2018-02-12T13:08:02.488Z,60.02
2018-02-12T13:09:12.692Z,59.55
2018-02-12T13:10:22.828Z,59.64
2018-02-12T13:11:33.033Z,59.99
2018-02-12T13:12:43.191Z,59.99
2018-02-12T13:13:53.417Z,60.57
2018-02-12T13:15:03.632Z,60.94
2018-02-12T13:16:13.826Z,60.94
2018-02-12T13:17:24.109Z,61.04
2018-02-12T13:18:34.233Z,61.52
2018-02-12T13:19:44.379Z,61.9
2018-02-12T13:20:54.535Z,62.08
2018-02-12T13:22:04.666Z,62.08
2018-02-12T13:23:14.780Z,62.18
2018-02-12T13:24:24.672Z,61.8
2018-02-12T13:25:34.787Z,61.93
2018-02-12T13:26:44.952Z,61.26
2018-02-12T13:27:55.125Z,60.41
2018-02-12T13:29:05.267Z,60.05
2018-02-12T13:30:16.134Z,59.1
2018-02-12T13:31:26.292Z,58.62
2018-02-12T13:32:36.531Z,57.99
2018-02-12T13:33:46.395Z,57.32
2018-02-12T13:34:56.262Z,57.23
2018-02-12T13:36:06.466Z,57.42
2018-02-12T13:37:16.646Z,58.08
2018-02-12T13:38:26.765Z,57.39
2018-02-12T13:39:36.890Z,57.96
2018-02-12T13:40:47.068Z,58.15
2018-02-12T13:41:56.966Z,58.53
2018-02-12T13:43:07.185Z,59.01
2018-02-12T13:44:17.401Z,59.07
2018-02-12T13:45:27.677Z,59.55
2018-02-12T13:46:38.790Z,59.36
2018-02-12T13:47:48.967Z,59.52
2018-02-12T13:48:59.192Z,60.09
2018-02-12T13:50:09.362Z,60.66
2018-02-12T13:51:19.609Z,61.04
2018-02-12T13:52:29.769Z,61.01
2018-02-12T13:53:39.992Z,61.29
2018-02-12T13:54:50.254Z,62.05
2018-02-12T13:56:00.198Z,61.96
2018-02-12T13:57:10.346Z,62.53
2018-02-12T13:58:20.465Z,62.53
2018-02-12T13:59:30.603Z,63.29
2018-02-12T14:00:40.713Z,63.01
2018-02-12T14:01:50.935Z,63.1
2018-02-12T14:03:01.099Z,63.64
2018-02-12T14:04:11.225Z,63.64
2018-02-12T14:05:21.371Z,64.02
2018-02-12T14:06:31.496Z,64.21
2018-02-12T14:07:41.655Z,64.11
2018-02-12T14:08:51.853Z,64.3
2018-02-12T14:10:02.228Z,64.21
2018-02-12T14:11:12.467Z,64.69
2018-02-12T14:12:22.654Z,64.69
2018-02-12T14:13:32.862Z,64.59
2018-02-12T14:14:43.085Z,64.87
2018-02-12T14:15:52.961Z,64.69
2018-02-12T14:17:03.086Z,65.25
2018-02-12T14:18:12.994Z,64.97
2018-02-12T14:19:23.142Z,65.35
2018-02-12T14:20:33.016Z,65.54
2018-02-12T14:21:43.164Z,65.54
2018-02-12T14:22:53.339Z,65.44
2018-02-12T14:24:04.442Z,65.44
2018-02-12T14:25:14.565Z,65.44
2018-02-12T14:26:24.696Z,65.82
2018-02-12T14:27:34.913Z,65.73
2018-02-12T14:28:45.045Z,65.73
2018-02-12T14:29:55.170Z,65.73
2018-02-12T14:31:05.293Z,65.25
2018-02-12T14:32:15.538Z,65.54
2018-02-12T14:33:25.677Z,65.16
2018-02-12T14:34:35.817Z,65.44
2018-02-12T14:35:45.953Z,65.16
2018-02-12T14:36:55.741Z,64.87
2018-02-12T14:38:06.007Z,64.59
2018-02-12T14:39:16.151Z,64.87
2018-02-12T14:40:26.306Z,64.78
2018-02-12T14:41:36.462Z,64.78
2018-02-12T14:42:46.602Z,65.25
2018-02-12T14:43:56.732Z,65.06
2018-02-12T14:45:06.989Z,65.16
2018-02-12T14:46:17.192Z,65.16
2018-02-12T14:47:27.366Z,64.97
2018-02-12T14:48:37.626Z,64.78
2018-02-12T14:49:47.773Z,64.78
2018-02-12T14:50:57.891Z,65.35
2018-02-12T14:52:08.178Z,65.25
2018-02-12T14:53:18.520Z,65.5
2018-02-12T14:54:28.679Z,65.31
2018-02-12T14:55:38.951Z,65.22
2018-02-12T14:56:49.148Z,65.5
2018-02-12T14:57:59.358Z,65.22
2018-02-12T14:59:09.550Z,65.5
2018-02-12T15:00:19.728Z,65.41
2018-02-12T15:01:29.898Z,66.17
2018-02-12T15:02:40.177Z,65.88
2018-02-12T15:03:50.062Z,65.98
2018-02-12T15:04:59.821Z,66.36
2018-02-12T15:06:09.709Z,66.17